sensor_id;sensor_type;location;lat;lon;timestamp;temperature;humidity
17992;DHT22;9121;50.926;5.340;2022-08-21T00:00:08;18.50;99.90
17992;DHT22;9121;50.926;5.340;2022-08-21T00:02:36;18.40;99.90
17992;DHT22;9121;50.926;5.340;2022-08-21T00:05:05;18.40;99.90
17992;DHT22;9121;50.926;5.340;2022-08-21T00:07:32;18.30;99.90
17992;DHT22;9121;50.926;5.340;2022-08-21T00:09:59;18.30;99.90
17992;DHT22;9121;50.926;5.340;2022-08-21T00:12:26;18.30;99.90
17992;DHT22;9121;50.926;5.340;2022-08-21T00:14:53;18.20;99.90
17992;DHT22;9121;50.926;5.340;2022-08-21T00:17:20;18.10;99.90
17992;DHT22;9121;50.926;5.340;2022-08-21T00:19:48;18.10;99.90
17992;DHT22;9121;50.926;5.340;2022-08-21T00:22:16;18.20;99.90
17992;DHT22;9121;50.926;5.340;2022-08-21T00:24:43;18.10;99.90
17992;DHT22;9121;50.926;5.340;2022-08-21T00:27:10;18.10;99.90
17992;DHT22;9121;50.926;5.340;2022-08-21T00:29:37;18.10;99.90
17992;DHT22;9121;50.926;5.340;2022-08-21T00:32:04;18.00;99.90
17992;DHT22;9121;50.926;5.340;2022-08-21T00:34:32;18.00;99.90
17992;DHT22;9121;50.926;5.340;2022-08-21T00:36:59;18.00;99.90
17992;DHT22;9121;50.926;5.340;2022-08-21T00:39:27;17.90;99.90
17992;DHT22;9121;50.926;5.340;2022-08-21T00:41:54;17.90;99.90
17992;DHT22;9121;50.926;5.340;2022-08-21T00:44:21;17.80;99.90
17992;DHT22;9121;50.926;5.340;2022-08-21T00:46:48;17.80;99.90
17992;DHT22;9121;50.926;5.340;2022-08-21T00:49:16;17.80;99.90
17992;DHT22;9121;50.926;5.340;2022-08-21T00:51:47;17.80;99.90
17992;DHT22;9121;50.926;5.340;2022-08-21T00:54:15;17.70;99.90
17992;DHT22;9121;50.926;5.340;2022-08-21T00:56:43;17.70;99.90
17992;DHT22;9121;50.926;5.340;2022-08-21T00:59:11;17.70;99.90
17992;DHT22;9121;50.926;5.340;2022-08-21T01:01:38;17.70;99.90
17992;DHT22;9121;50.926;5.340;2022-08-21T01:04:05;17.70;99.90
17992;DHT22;9121;50.926;5.340;2022-08-21T01:06:32;17.70;99.90
17992;DHT22;9121;50.926;5.340;2022-08-21T01:08:59;17.70;99.90
17992;DHT22;9121;50.926;5.340;2022-08-21T01:11:26;17.60;99.90
17992;DHT22;9121;50.926;5.340;2022-08-21T01:13:54;17.60;99.90
17992;DHT22;9121;50.926;5.340;2022-08-21T01:16:22;17.60;99.90
17992;DHT22;9121;50.926;5.340;2022-08-21T01:18:50;17.60;99.90
17992;DHT22;9121;50.926;5.340;2022-08-21T01:21:20;17.50;99.90
17992;DHT22;9121;50.926;5.340;2022-08-21T01:23:51;17.50;99.90
17992;DHT22;9121;50.926;5.340;2022-08-21T01:26:22;17.60;99.90
17992;DHT22;9121;50.926;5.340;2022-08-21T01:28:54;17.60;99.90
17992;DHT22;9121;50.926;5.340;2022-08-21T01:31:24;17.50;99.90
17992;DHT22;9121;50.926;5.340;2022-08-21T01:33:52;17.50;99.90
17992;DHT22;9121;50.926;5.340;2022-08-21T01:36:21;17.50;99.90
17992;DHT22;9121;50.926;5.340;2022-08-21T01:38:48;17.50;99.90
17992;DHT22;9121;50.926;5.340;2022-08-21T01:41:16;17.50;99.90
17992;DHT22;9121;50.926;5.340;2022-08-21T01:43:44;17.40;99.90
17992;DHT22;9121;50.926;5.340;2022-08-21T01:46:12;17.40;99.90
17992;DHT22;9121;50.926;5.340;2022-08-21T01:48:39;17.40;99.90
17992;DHT22;9121;50.926;5.340;2022-08-21T01:51:06;17.40;99.90
17992;DHT22;9121;50.926;5.340;2022-08-21T01:53:36;17.30;99.90
17992;DHT22;9121;50.926;5.340;2022-08-21T01:56:05;17.30;99.90
17992;DHT22;9121;50.926;5.340;2022-08-21T01:58:33;17.20;99.90
17992;DHT22;9121;50.926;5.340;2022-08-21T02:01:00;17.20;99.90
17992;DHT22;9121;50.926;5.340;2022-08-21T02:03:27;17.20;99.90
17992;DHT22;9121;50.926;5.340;2022-08-21T02:05:55;17.10;99.90
17992;DHT22;9121;50.926;5.340;2022-08-21T02:08:22;17.10;99.90
17992;DHT22;9121;50.926;5.340;2022-08-21T02:10:51;17.10;99.90
17992;DHT22;9121;50.926;5.340;2022-08-21T02:13:18;17.10;99.90
17992;DHT22;9121;50.926;5.340;2022-08-21T02:15:45;17.10;99.90
17992;DHT22;9121;50.926;5.340;2022-08-21T02:18:12;17.10;99.90
17992;DHT22;9121;50.926;5.340;2022-08-21T02:20:43;17.00;99.90
17992;DHT22;9121;50.926;5.340;2022-08-21T02:23:11;17.00;99.90
17992;DHT22;9121;50.926;5.340;2022-08-21T02:25:39;17.10;99.90
17992;DHT22;9121;50.926;5.340;2022-08-21T02:28:10;17.10;99.90
17992;DHT22;9121;50.926;5.340;2022-08-21T02:30:40;17.20;99.90
17992;DHT22;9121;50.926;5.340;2022-08-21T02:33:08;17.00;99.90
17992;DHT22;9121;50.926;5.340;2022-08-21T02:35:36;17.00;99.90
17992;DHT22;9121;50.926;5.340;2022-08-21T02:38:05;17.00;99.90
17992;DHT22;9121;50.926;5.340;2022-08-21T02:40:35;16.90;99.90
17992;DHT22;9121;50.926;5.340;2022-08-21T02:43:04;16.90;99.90
17992;DHT22;9121;50.926;5.340;2022-08-21T02:45:34;16.80;99.90
17992;DHT22;9121;50.926;5.340;2022-08-21T02:48:04;16.80;99.90
17992;DHT22;9121;50.926;5.340;2022-08-21T02:50:35;16.70;99.90
17992;DHT22;9121;50.926;5.340;2022-08-21T02:53:03;16.70;99.90
17992;DHT22;9121;50.926;5.340;2022-08-21T02:55:32;16.70;99.90
17992;DHT22;9121;50.926;5.340;2022-08-21T02:58:01;16.60;99.90
17992;DHT22;9121;50.926;5.340;2022-08-21T03:00:29;16.70;99.90
17992;DHT22;9121;50.926;5.340;2022-08-21T03:02:58;16.60;99.90
17992;DHT22;9121;50.926;5.340;2022-08-21T03:05:27;16.60;99.90
17992;DHT22;9121;50.926;5.340;2022-08-21T03:07:57;16.60;99.90
17992;DHT22;9121;50.926;5.340;2022-08-21T03:10:25;16.50;99.90
17992;DHT22;9121;50.926;5.340;2022-08-21T03:12:52;16.50;99.90
17992;DHT22;9121;50.926;5.340;2022-08-21T03:15:21;16.40;99.90
17992;DHT22;9121;50.926;5.340;2022-08-21T03:17:49;16.40;99.90
17992;DHT22;9121;50.926;5.340;2022-08-21T03:20:20;16.40;99.90
17992;DHT22;9121;50.926;5.340;2022-08-21T03:22:48;16.40;99.90
17992;DHT22;9121;50.926;5.340;2022-08-21T03:25:15;16.40;99.90
17992;DHT22;9121;50.926;5.340;2022-08-21T03:27:43;16.40;99.90
17992;DHT22;9121;50.926;5.340;2022-08-21T03:30:11;16.40;99.90
17992;DHT22;9121;50.926;5.340;2022-08-21T03:32:38;16.40;99.90
17992;DHT22;9121;50.926;5.340;2022-08-21T03:35:07;16.40;99.90
17992;DHT22;9121;50.926;5.340;2022-08-21T03:37:36;16.30;99.90
17992;DHT22;9121;50.926;5.340;2022-08-21T03:40:03;16.40;99.90
17992;DHT22;9121;50.926;5.340;2022-08-21T03:42:30;16.40;99.90
17992;DHT22;9121;50.926;5.340;2022-08-21T03:44:57;16.30;99.90
17992;DHT22;9121;50.926;5.340;2022-08-21T03:47:24;16.30;99.90
17992;DHT22;9121;50.926;5.340;2022-08-21T03:49:51;16.40;99.90
17992;DHT22;9121;50.926;5.340;2022-08-21T03:52:18;16.30;99.90
17992;DHT22;9121;50.926;5.340;2022-08-21T03:54:46;16.30;99.90
17992;DHT22;9121;50.926;5.340;2022-08-21T03:57:13;16.30;99.90
17992;DHT22;9121;50.926;5.340;2022-08-21T03:59:40;16.30;99.90
17992;DHT22;9121;50.926;5.340;2022-08-21T04:02:08;16.20;99.90
17992;DHT22;9121;50.926;5.340;2022-08-21T04:04:36;16.20;99.90
17992;DHT22;9121;50.926;5.340;2022-08-21T04:07:03;16.10;99.90
17992;DHT22;9121;50.926;5.340;2022-08-21T04:09:30;16.10;99.90
17992;DHT22;9121;50.926;5.340;2022-08-21T04:11:59;16.10;99.90
17992;DHT22;9121;50.926;5.340;2022-08-21T04:14:26;16.00;99.90
17992;DHT22;9121;50.926;5.340;2022-08-21T04:16:53;16.00;99.90
17992;DHT22;9121;50.926;5.340;2022-08-21T04:19:20;16.00;99.90
17992;DHT22;9121;50.926;5.340;2022-08-21T04:21:48;16.10;99.90
17992;DHT22;9121;50.926;5.340;2022-08-21T04:24:15;16.00;99.90
17992;DHT22;9121;50.926;5.340;2022-08-21T04:26:42;16.00;99.90
17992;DHT22;9121;50.926;5.340;2022-08-21T04:29:10;16.00;99.90
17992;DHT22;9121;50.926;5.340;2022-08-21T04:31:37;16.00;99.90
17992;DHT22;9121;50.926;5.340;2022-08-21T04:34:05;15.90;99.90
17992;DHT22;9121;50.926;5.340;2022-08-21T04:36:32;15.90;99.90
17992;DHT22;9121;50.926;5.340;2022-08-21T04:38:59;15.90;99.90
17992;DHT22;9121;50.926;5.340;2022-08-21T04:41:26;15.90;99.90
17992;DHT22;9121;50.926;5.340;2022-08-21T04:43:53;16.00;99.90
17992;DHT22;9121;50.926;5.340;2022-08-21T04:46:22;16.00;99.90
17992;DHT22;9121;50.926;5.340;2022-08-21T04:48:49;16.00;99.90
17992;DHT22;9121;50.926;5.340;2022-08-21T04:51:18;16.00;99.90
17992;DHT22;9121;50.926;5.340;2022-08-21T04:53:49;16.00;99.90
17992;DHT22;9121;50.926;5.340;2022-08-21T04:56:22;16.00;99.90
17992;DHT22;9121;50.926;5.340;2022-08-21T04:58:51;16.00;99.90
17992;DHT22;9121;50.926;5.340;2022-08-21T05:01:21;16.00;99.90
17992;DHT22;9121;50.926;5.340;2022-08-21T05:03:53;15.90;99.90
17992;DHT22;9121;50.926;5.340;2022-08-21T05:06:22;15.90;99.90
17992;DHT22;9121;50.926;5.340;2022-08-21T05:08:52;15.90;99.90
17992;DHT22;9121;50.926;5.340;2022-08-21T05:11:20;15.90;99.90
17992;DHT22;9121;50.926;5.340;2022-08-21T05:13:47;15.90;99.90
17992;DHT22;9121;50.926;5.340;2022-08-21T05:16:15;16.00;99.90
17992;DHT22;9121;50.926;5.340;2022-08-21T05:18:42;16.00;99.90
17992;DHT22;9121;50.926;5.340;2022-08-21T05:21:10;16.00;99.90
17992;DHT22;9121;50.926;5.340;2022-08-21T05:23:37;16.10;99.90
17992;DHT22;9121;50.926;5.340;2022-08-21T05:26:04;16.10;99.90
17992;DHT22;9121;50.926;5.340;2022-08-21T05:28:31;16.10;99.90
17992;DHT22;9121;50.926;5.340;2022-08-21T05:30:58;16.20;99.90
17992;DHT22;9121;50.926;5.340;2022-08-21T05:33:26;16.20;99.90
17992;DHT22;9121;50.926;5.340;2022-08-21T05:35:54;16.30;99.90
17992;DHT22;9121;50.926;5.340;2022-08-21T05:38:22;16.30;99.90
17992;DHT22;9121;50.926;5.340;2022-08-21T05:40:49;16.30;99.90
17992;DHT22;9121;50.926;5.340;2022-08-21T05:43:17;16.30;99.90
17992;DHT22;9121;50.926;5.340;2022-08-21T05:45:44;16.30;99.90
17992;DHT22;9121;50.926;5.340;2022-08-21T05:48:14;16.40;99.90
17992;DHT22;9121;50.926;5.340;2022-08-21T05:50:41;16.40;99.90
17992;DHT22;9121;50.926;5.340;2022-08-21T05:53:09;16.40;99.90
17992;DHT22;9121;50.926;5.340;2022-08-21T05:55:38;16.50;99.90
17992;DHT22;9121;50.926;5.340;2022-08-21T05:58:05;16.50;99.90
17992;DHT22;9121;50.926;5.340;2022-08-21T06:00:32;16.50;99.90
17992;DHT22;9121;50.926;5.340;2022-08-21T06:02:59;16.50;99.90
17992;DHT22;9121;50.926;5.340;2022-08-21T06:05:26;16.70;99.90
17992;DHT22;9121;50.926;5.340;2022-08-21T06:07:53;16.80;99.90
17992;DHT22;9121;50.926;5.340;2022-08-21T06:10:20;17.00;99.90
17992;DHT22;9121;50.926;5.340;2022-08-21T06:12:52;17.10;99.90
17992;DHT22;9121;50.926;5.340;2022-08-21T06:15:20;17.10;99.90
17992;DHT22;9121;50.926;5.340;2022-08-21T06:17:47;17.20;99.90
17992;DHT22;9121;50.926;5.340;2022-08-21T06:20:14;17.30;99.90
17992;DHT22;9121;50.926;5.340;2022-08-21T06:22:41;17.30;99.90
17992;DHT22;9121;50.926;5.340;2022-08-21T06:25:08;17.40;99.90
17992;DHT22;9121;50.926;5.340;2022-08-21T06:27:36;17.40;99.90
17992;DHT22;9121;50.926;5.340;2022-08-21T06:30:06;17.40;99.90
17992;DHT22;9121;50.926;5.340;2022-08-21T06:32:33;17.40;99.90
17992;DHT22;9121;50.926;5.340;2022-08-21T06:35:00;17.50;99.90
17992;DHT22;9121;50.926;5.340;2022-08-21T06:37:27;17.50;99.90
17992;DHT22;9121;50.926;5.340;2022-08-21T06:39:54;17.70;99.90
17992;DHT22;9121;50.926;5.340;2022-08-21T06:42:21;17.80;99.90
17992;DHT22;9121;50.926;5.340;2022-08-21T06:44:48;17.90;99.90
17992;DHT22;9121;50.926;5.340;2022-08-21T06:47:16;18.00;99.90
17992;DHT22;9121;50.926;5.340;2022-08-21T06:49:43;18.10;99.90
17992;DHT22;9121;50.926;5.340;2022-08-21T06:52:12;18.30;99.90
17992;DHT22;9121;50.926;5.340;2022-08-21T06:54:39;18.60;99.90
17992;DHT22;9121;50.926;5.340;2022-08-21T06:57:06;18.90;99.90
17992;DHT22;9121;50.926;5.340;2022-08-21T06:59:33;18.80;99.90
17992;DHT22;9121;50.926;5.340;2022-08-21T07:02:00;18.80;99.90
17992;DHT22;9121;50.926;5.340;2022-08-21T07:04:29;18.80;99.90
17992;DHT22;9121;50.926;5.340;2022-08-21T07:06:56;18.90;99.90
17992;DHT22;9121;50.926;5.340;2022-08-21T07:09:23;18.90;99.90
17992;DHT22;9121;50.926;5.340;2022-08-21T07:11:53;19.00;99.90
17992;DHT22;9121;50.926;5.340;2022-08-21T07:14:21;19.20;99.90
17992;DHT22;9121;50.926;5.340;2022-08-21T07:16:48;19.20;99.90
17992;DHT22;9121;50.926;5.340;2022-08-21T07:19:16;19.30;99.90
17992;DHT22;9121;50.926;5.340;2022-08-21T07:21:44;19.40;99.90
17992;DHT22;9121;50.926;5.340;2022-08-21T07:24:12;19.60;99.90
17992;DHT22;9121;50.926;5.340;2022-08-21T07:26:39;19.70;99.90
17992;DHT22;9121;50.926;5.340;2022-08-21T07:29:06;19.70;99.90
17992;DHT22;9121;50.926;5.340;2022-08-21T07:31:33;19.70;99.90
17992;DHT22;9121;50.926;5.340;2022-08-21T07:34:00;19.70;99.90
17992;DHT22;9121;50.926;5.340;2022-08-21T07:36:27;19.80;99.90
17992;DHT22;9121;50.926;5.340;2022-08-21T07:38:56;19.90;99.90
17992;DHT22;9121;50.926;5.340;2022-08-21T07:41:25;20.10;99.90
17992;DHT22;9121;50.926;5.340;2022-08-21T07:43:55;20.30;99.90
17992;DHT22;9121;50.926;5.340;2022-08-21T07:46:22;20.40;99.90
17992;DHT22;9121;50.926;5.340;2022-08-21T07:48:50;20.40;99.90
17992;DHT22;9121;50.926;5.340;2022-08-21T07:51:18;20.30;99.90
17992;DHT22;9121;50.926;5.340;2022-08-21T07:53:49;20.20;99.90
17992;DHT22;9121;50.926;5.340;2022-08-21T07:56:18;20.30;99.90
17992;DHT22;9121;50.926;5.340;2022-08-21T07:58:45;20.30;99.90
17992;DHT22;9121;50.926;5.340;2022-08-21T08:01:12;20.50;99.90
17992;DHT22;9121;50.926;5.340;2022-08-21T08:03:40;20.50;99.90
17992;DHT22;9121;50.926;5.340;2022-08-21T08:06:07;20.60;99.90
17992;DHT22;9121;50.926;5.340;2022-08-21T08:08:37;20.60;99.90
17992;DHT22;9121;50.926;5.340;2022-08-21T08:11:07;20.50;99.90
17992;DHT22;9121;50.926;5.340;2022-08-21T08:13:39;20.60;99.90
17992;DHT22;9121;50.926;5.340;2022-08-21T08:16:07;20.70;99.90
17992;DHT22;9121;50.926;5.340;2022-08-21T08:18:34;21.00;99.90
17992;DHT22;9121;50.926;5.340;2022-08-21T08:21:02;20.80;99.90
17992;DHT22;9121;50.926;5.340;2022-08-21T08:23:29;20.70;99.90
17992;DHT22;9121;50.926;5.340;2022-08-21T08:25:56;20.80;99.90
17992;DHT22;9121;50.926;5.340;2022-08-21T08:28:23;20.90;99.90
17992;DHT22;9121;50.926;5.340;2022-08-21T08:30:51;20.90;99.90
17992;DHT22;9121;50.926;5.340;2022-08-21T08:33:18;21.00;99.90
17992;DHT22;9121;50.926;5.340;2022-08-21T08:35:47;21.10;99.90
17992;DHT22;9121;50.926;5.340;2022-08-21T08:38:15;21.10;99.90
17992;DHT22;9121;50.926;5.340;2022-08-21T08:40:50;21.20;99.90
17992;DHT22;9121;50.926;5.340;2022-08-21T08:43:19;21.30;99.90
17992;DHT22;9121;50.926;5.340;2022-08-21T08:45:49;21.50;99.90
17992;DHT22;9121;50.926;5.340;2022-08-21T08:48:36;21.70;99.90
17992;DHT22;9121;50.926;5.340;2022-08-21T08:51:11;21.90;99.90
17992;DHT22;9121;50.926;5.340;2022-08-21T08:53:48;22.10;99.90
17992;DHT22;9121;50.926;5.340;2022-08-21T08:56:19;22.20;99.90
17992;DHT22;9121;50.926;5.340;2022-08-21T08:58:48;22.40;99.90
17992;DHT22;9121;50.926;5.340;2022-08-21T09:01:18;22.50;99.90
17992;DHT22;9121;50.926;5.340;2022-08-21T09:03:48;22.30;99.90
17992;DHT22;9121;50.926;5.340;2022-08-21T09:06:28;22.20;99.90
17992;DHT22;9121;50.926;5.340;2022-08-21T09:09:08;22.20;99.90
17992;DHT22;9121;50.926;5.340;2022-08-21T09:11:48;22.40;99.90
17992;DHT22;9121;50.926;5.340;2022-08-21T09:14:26;22.20;99.90
17992;DHT22;9121;50.926;5.340;2022-08-21T09:17:01;22.20;99.90
17992;DHT22;9121;50.926;5.340;2022-08-21T09:19:42;22.20;99.90
17992;DHT22;9121;50.926;5.340;2022-08-21T09:22:19;22.10;99.90
17992;DHT22;9121;50.926;5.340;2022-08-21T09:24:58;22.10;99.90
17992;DHT22;9121;50.926;5.340;2022-08-21T09:27:29;22.40;99.90
17992;DHT22;9121;50.926;5.340;2022-08-21T09:29:56;22.40;99.90
17992;DHT22;9121;50.926;5.340;2022-08-21T09:32:26;22.40;99.90
17992;DHT22;9121;50.926;5.340;2022-08-21T09:35:00;22.40;99.90
17992;DHT22;9121;50.926;5.340;2022-08-21T09:37:29;22.40;99.90
17992;DHT22;9121;50.926;5.340;2022-08-21T09:39:57;22.60;99.90
17992;DHT22;9121;50.926;5.340;2022-08-21T09:42:27;22.60;99.90
17992;DHT22;9121;50.926;5.340;2022-08-21T09:45:11;22.60;99.90
17992;DHT22;9121;50.926;5.340;2022-08-21T09:47:38;22.50;99.90
17992;DHT22;9121;50.926;5.340;2022-08-21T09:50:11;22.50;99.90
17992;DHT22;9121;50.926;5.340;2022-08-21T09:52:45;22.40;99.90
17992;DHT22;9121;50.926;5.340;2022-08-21T09:55:18;22.50;99.90
17992;DHT22;9121;50.926;5.340;2022-08-21T09:57:59;22.60;99.90
17992;DHT22;9121;50.926;5.340;2022-08-21T10:00:29;22.30;99.90
17992;DHT22;9121;50.926;5.340;2022-08-21T10:03:08;22.60;99.90
17992;DHT22;9121;50.926;5.340;2022-08-21T10:05:37;23.00;99.90
17992;DHT22;9121;50.926;5.340;2022-08-21T10:08:04;23.20;99.90
17992;DHT22;9121;50.926;5.340;2022-08-21T10:10:36;23.30;99.90
17992;DHT22;9121;50.926;5.340;2022-08-21T10:13:08;23.50;99.90
17992;DHT22;9121;50.926;5.340;2022-08-21T10:15:47;23.60;99.90
17992;DHT22;9121;50.926;5.340;2022-08-21T10:18:21;23.60;99.90
17992;DHT22;9121;50.926;5.340;2022-08-21T10:20:54;23.60;99.90
17992;DHT22;9121;50.926;5.340;2022-08-21T10:23:39;23.30;99.90
17992;DHT22;9121;50.926;5.340;2022-08-21T10:26:20;23.40;99.90
17992;DHT22;9121;50.926;5.340;2022-08-21T10:28:59;23.40;99.90
17992;DHT22;9121;50.926;5.340;2022-08-21T10:31:40;23.50;99.90
17992;DHT22;9121;50.926;5.340;2022-08-21T10:34:18;23.60;99.90
17992;DHT22;9121;50.926;5.340;2022-08-21T10:37:01;23.80;99.90
17992;DHT22;9121;50.926;5.340;2022-08-21T10:39:34;24.00;99.90
17992;DHT22;9121;50.926;5.340;2022-08-21T10:42:20;24.10;99.90
17992;DHT22;9121;50.926;5.340;2022-08-21T10:45:02;24.10;99.90
17992;DHT22;9121;50.926;5.340;2022-08-21T10:47:35;24.30;99.90
17992;DHT22;9121;50.926;5.340;2022-08-21T10:50:09;24.40;99.90
17992;DHT22;9121;50.926;5.340;2022-08-21T10:52:56;24.40;99.90
17992;DHT22;9121;50.926;5.340;2022-08-21T10:55:30;23.90;99.90
17992;DHT22;9121;50.926;5.340;2022-08-21T10:57:59;24.00;99.90
17992;DHT22;9121;50.926;5.340;2022-08-21T11:00:33;24.10;99.90
17992;DHT22;9121;50.926;5.340;2022-08-21T11:03:05;24.10;99.90
17992;DHT22;9121;50.926;5.340;2022-08-21T11:05:38;24.20;99.90
17992;DHT22;9121;50.926;5.340;2022-08-21T11:08:11;24.30;99.90
17992;DHT22;9121;50.926;5.340;2022-08-21T11:10:42;24.50;99.90
17992;DHT22;9121;50.926;5.340;2022-08-21T11:13:13;24.50;99.90
17992;DHT22;9121;50.926;5.340;2022-08-21T11:15:48;24.30;99.90
17992;DHT22;9121;50.926;5.340;2022-08-21T11:18:22;24.20;99.90
17992;DHT22;9121;50.926;5.340;2022-08-21T11:20:59;24.30;99.90
17992;DHT22;9121;50.926;5.340;2022-08-21T11:23:36;24.70;99.90
17992;DHT22;9121;50.926;5.340;2022-08-21T11:26:08;25.10;99.90
17992;DHT22;9121;50.926;5.340;2022-08-21T11:28:41;25.30;99.90
17992;DHT22;9121;50.926;5.340;2022-08-21T11:31:25;25.30;99.90
17992;DHT22;9121;50.926;5.340;2022-08-21T11:34:04;25.40;99.90
17992;DHT22;9121;50.926;5.340;2022-08-21T11:36:42;25.40;99.90
17992;DHT22;9121;50.926;5.340;2022-08-21T11:39:19;25.30;99.90
17992;DHT22;9121;50.926;5.340;2022-08-21T11:41:58;25.10;99.90
17992;DHT22;9121;50.926;5.340;2022-08-21T11:44:37;25.30;99.90
17992;DHT22;9121;50.926;5.340;2022-08-21T11:47:12;25.60;99.90
17992;DHT22;9121;50.926;5.340;2022-08-21T11:49:58;25.40;99.90
17992;DHT22;9121;50.926;5.340;2022-08-21T11:52:33;25.30;99.90
17992;DHT22;9121;50.926;5.340;2022-08-21T11:55:06;25.50;99.90
17992;DHT22;9121;50.926;5.340;2022-08-21T11:57:46;25.90;99.90
17992;DHT22;9121;50.926;5.340;2022-08-21T12:00:19;26.20;99.90
17992;DHT22;9121;50.926;5.340;2022-08-21T12:02:51;25.80;99.90
17992;DHT22;9121;50.926;5.340;2022-08-21T12:05:30;25.40;99.90
17992;DHT22;9121;50.926;5.340;2022-08-21T12:08:10;25.30;99.90
17992;DHT22;9121;50.926;5.340;2022-08-21T12:10:41;25.70;99.90
17992;DHT22;9121;50.926;5.340;2022-08-21T12:13:11;26.00;99.90
17992;DHT22;9121;50.926;5.340;2022-08-21T12:15:39;26.20;99.90
17992;DHT22;9121;50.926;5.340;2022-08-21T12:18:20;26.60;99.90
17992;DHT22;9121;50.926;5.340;2022-08-21T12:20:58;26.90;99.90
17992;DHT22;9121;50.926;5.340;2022-08-21T12:23:29;27.20;99.90
17992;DHT22;9121;50.926;5.340;2022-08-21T12:28:44;27.70;99.90
17992;DHT22;9121;50.926;5.340;2022-08-21T12:31:23;27.20;99.90
17992;DHT22;9121;50.926;5.340;2022-08-21T12:33:56;26.90;99.90
17992;DHT22;9121;50.926;5.340;2022-08-21T12:36:27;27.20;99.90
17992;DHT22;9121;50.926;5.340;2022-08-21T12:38:57;27.10;99.90
17992;DHT22;9121;50.926;5.340;2022-08-21T12:41:28;27.00;99.90
17992;DHT22;9121;50.926;5.340;2022-08-21T12:44:00;27.20;99.90
17992;DHT22;9121;50.926;5.340;2022-08-21T12:46:37;28.00;99.90
17992;DHT22;9121;50.926;5.340;2022-08-21T12:49:11;28.60;99.90
17992;DHT22;9121;50.926;5.340;2022-08-21T12:51:48;28.80;99.90
17992;DHT22;9121;50.926;5.340;2022-08-21T12:54:24;29.00;99.90
17992;DHT22;9121;50.926;5.340;2022-08-21T12:57:04;29.60;99.90
17992;DHT22;9121;50.926;5.340;2022-08-21T12:59:36;29.80;98.80
17992;DHT22;9121;50.926;5.340;2022-08-21T13:02:10;29.60;98.70
17992;DHT22;9121;50.926;5.340;2022-08-21T13:04:41;29.00;98.90
17992;DHT22;9121;50.926;5.340;2022-08-21T13:07:10;29.40;98.40
17992;DHT22;9121;50.926;5.340;2022-08-21T13:09:43;29.70;97.90
17992;DHT22;9121;50.926;5.340;2022-08-21T13:12:13;29.60;97.40
17992;DHT22;9121;50.926;5.340;2022-08-21T13:14:42;29.50;97.10
17992;DHT22;9121;50.926;5.340;2022-08-21T13:17:12;29.60;96.90
17992;DHT22;9121;50.926;5.340;2022-08-21T13:19:40;29.40;95.80
17992;DHT22;9121;50.926;5.340;2022-08-21T13:22:12;29.50;95.10
17992;DHT22;9121;50.926;5.340;2022-08-21T13:24:40;29.60;95.60
17992;DHT22;9121;50.926;5.340;2022-08-21T13:27:21;29.80;95.00
17992;DHT22;9121;50.926;5.340;2022-08-21T13:30:00;30.10;94.60
17992;DHT22;9121;50.926;5.340;2022-08-21T13:32:30;31.00;93.80
17992;DHT22;9121;50.926;5.340;2022-08-21T13:34:57;31.40;93.10
17992;DHT22;9121;50.926;5.340;2022-08-21T13:37:26;31.20;92.90
17992;DHT22;9121;50.926;5.340;2022-08-21T13:39:53;31.20;93.20
17992;DHT22;9121;50.926;5.340;2022-08-21T13:42:22;31.30;92.50
17992;DHT22;9121;50.926;5.340;2022-08-21T13:44:52;31.40;91.00
17992;DHT22;9121;50.926;5.340;2022-08-21T13:47:20;30.90;91.70
17992;DHT22;9121;50.926;5.340;2022-08-21T13:49:50;31.60;91.40
17992;DHT22;9121;50.926;5.340;2022-08-21T13:52:20;31.60;91.70
17992;DHT22;9121;50.926;5.340;2022-08-21T13:54:54;31.30;91.60
17992;DHT22;9121;50.926;5.340;2022-08-21T13:57:28;31.10;91.30
17992;DHT22;9121;50.926;5.340;2022-08-21T14:00:11;31.20;91.20
17992;DHT22;9121;50.926;5.340;2022-08-21T14:02:40;31.50;90.40
17992;DHT22;9121;50.926;5.340;2022-08-21T14:05:15;31.20;91.20
17992;DHT22;9121;50.926;5.340;2022-08-21T14:07:43;31.30;91.70
17992;DHT22;9121;50.926;5.340;2022-08-21T14:10:14;31.30;90.90
17992;DHT22;9121;50.926;5.340;2022-08-21T14:12:46;30.90;90.90
17992;DHT22;9121;50.926;5.340;2022-08-21T14:15:15;30.10;91.40
17992;DHT22;9121;50.926;5.340;2022-08-21T14:17:44;29.50;91.60
17992;DHT22;9121;50.926;5.340;2022-08-21T14:20:13;28.70;92.60
17992;DHT22;9121;50.926;5.340;2022-08-21T14:22:52;28.10;92.60
17992;DHT22;9121;50.926;5.340;2022-08-21T14:25:29;28.10;93.00
17992;DHT22;9121;50.926;5.340;2022-08-21T14:28:03;28.30;93.00
17992;DHT22;9121;50.926;5.340;2022-08-21T14:30:33;28.30;92.90
17992;DHT22;9121;50.926;5.340;2022-08-21T14:33:00;28.40;92.50
17992;DHT22;9121;50.926;5.340;2022-08-21T14:35:27;28.30;92.80
17992;DHT22;9121;50.926;5.340;2022-08-21T14:37:54;28.30;93.10
17992;DHT22;9121;50.926;5.340;2022-08-21T14:40:23;28.20;93.60
17992;DHT22;9121;50.926;5.340;2022-08-21T14:42:51;28.10;93.20
17992;DHT22;9121;50.926;5.340;2022-08-21T14:45:25;28.20;93.20
17992;DHT22;9121;50.926;5.340;2022-08-21T14:47:52;28.10;93.40
17992;DHT22;9121;50.926;5.340;2022-08-21T14:50:19;28.20;93.40
17992;DHT22;9121;50.926;5.340;2022-08-21T14:52:46;28.30;93.20
17992;DHT22;9121;50.926;5.340;2022-08-21T14:55:14;28.20;93.50
17992;DHT22;9121;50.926;5.340;2022-08-21T14:57:42;28.00;93.50
17992;DHT22;9121;50.926;5.340;2022-08-21T15:00:12;27.80;93.30
17992;DHT22;9121;50.926;5.340;2022-08-21T15:02:43;27.80;94.00
17992;DHT22;9121;50.926;5.340;2022-08-21T15:05:11;27.50;93.90
17992;DHT22;9121;50.926;5.340;2022-08-21T15:07:39;27.20;94.20
17992;DHT22;9121;50.926;5.340;2022-08-21T15:10:09;27.30;94.20
17992;DHT22;9121;50.926;5.340;2022-08-21T15:12:36;27.10;94.70
17992;DHT22;9121;50.926;5.340;2022-08-21T15:15:05;27.10;94.60
17992;DHT22;9121;50.926;5.340;2022-08-21T15:17:32;27.20;94.80
17992;DHT22;9121;50.926;5.340;2022-08-21T15:20:01;27.30;94.80
17992;DHT22;9121;50.926;5.340;2022-08-21T15:22:28;27.30;94.80
17992;DHT22;9121;50.926;5.340;2022-08-21T15:24:55;27.30;94.70
17992;DHT22;9121;50.926;5.340;2022-08-21T15:27:22;26.80;95.30
17992;DHT22;9121;50.926;5.340;2022-08-21T15:29:48;26.70;95.40
17992;DHT22;9121;50.926;5.340;2022-08-21T15:32:22;26.60;95.40
17992;DHT22;9121;50.926;5.340;2022-08-21T15:34:49;26.50;95.80
17992;DHT22;9121;50.926;5.340;2022-08-21T15:37:19;26.50;96.20
17992;DHT22;9121;50.926;5.340;2022-08-21T15:39:46;26.50;95.70
17992;DHT22;9121;50.926;5.340;2022-08-21T15:42:12;26.60;96.10
17992;DHT22;9121;50.926;5.340;2022-08-21T15:44:40;26.70;95.60
17992;DHT22;9121;50.926;5.340;2022-08-21T15:47:12;26.80;95.60
17992;DHT22;9121;50.926;5.340;2022-08-21T15:49:40;27.00;95.40
17992;DHT22;9121;50.926;5.340;2022-08-21T15:52:10;27.00;95.50
17992;DHT22;9121;50.926;5.340;2022-08-21T15:54:38;26.80;95.80
17992;DHT22;9121;50.926;5.340;2022-08-21T15:57:05;27.00;95.70
17992;DHT22;9121;50.926;5.340;2022-08-21T15:59:38;27.00;95.60
17992;DHT22;9121;50.926;5.340;2022-08-21T16:02:07;27.10;95.70
17992;DHT22;9121;50.926;5.340;2022-08-21T16:04:35;27.00;95.60